createdAt,value
2018-04-12T00:01:25.699Z,0.00
2018-04-12T00:02:57.512Z,0.00
2018-04-12T00:04:29.326Z,0.00
2018-04-12T00:06:01.278Z,0.00
2018-04-12T00:07:32.953Z,0.00
2018-04-12T00:09:04.767Z,0.00
2018-04-12T00:10:36.582Z,0.00
2018-04-12T00:12:08.418Z,0.00
2018-04-12T00:13:40.212Z,0.00
2018-04-12T00:15:12.027Z,0.00
2018-04-12T00:16:43.845Z,0.00
2018-04-12T00:18:15.658Z,0.00
2018-04-12T00:19:47.474Z,0.00
2018-04-12T00:21:19.289Z,0.00
2018-04-12T00:22:51.103Z,0.00
2018-04-12T00:24:23.020Z,0.00
2018-04-12T00:25:54.735Z,0.00
2018-04-12T00:27:26.550Z,0.00
2018-04-12T00:28:58.365Z,0.00
2018-04-12T00:30:30.182Z,0.00
2018-04-12T00:32:01.996Z,0.00
2018-04-12T00:33:33.811Z,0.00
2018-04-12T00:35:05.626Z,0.00
2018-04-12T00:36:37.441Z,0.00
2018-04-12T00:38:09.255Z,0.00
2018-04-12T00:39:41.076Z,0.00
2018-04-12T00:41:12.886Z,0.00
2018-04-12T00:42:44.800Z,0.00
2018-04-12T00:44:16.519Z,0.00
2018-04-12T00:45:48.330Z,0.00
2018-04-12T00:47:20.144Z,0.00
2018-04-12T00:48:51.959Z,0.00
2018-04-12T00:50:23.781Z,0.00
2018-04-12T00:51:55.588Z,0.00
2018-04-12T00:53:27.402Z,0.00
2018-04-12T00:54:59.217Z,0.00
2018-04-12T00:56:31.029Z,0.00
2018-04-12T00:58:02.845Z,0.00
2018-04-12T00:59:34.660Z,0.00
2018-04-12T01:01:06.574Z,0.00
2018-04-12T01:02:38.289Z,0.00
2018-04-12T01:04:10.104Z,0.00
2018-04-12T01:05:41.922Z,0.00
2018-04-12T01:07:13.838Z,0.00
2018-04-12T01:08:45.548Z,0.00
2018-04-12T01:10:17.363Z,0.00
2018-04-12T01:11:49.177Z,0.00
2018-04-12T01:13:20.991Z,0.00
2018-04-12T01:14:52.806Z,0.00
2018-04-12T01:16:24.620Z,0.00
2018-04-12T01:17:56.435Z,0.00
2018-04-12T01:19:28.348Z,0.00
2018-04-12T01:21:00.062Z,0.00
2018-04-12T01:22:31.876Z,0.00
2018-04-12T01:24:03.695Z,0.00
2018-04-12T01:25:35.507Z,0.00
2018-04-12T01:27:07.321Z,0.00
2018-04-12T01:28:39.138Z,0.00
2018-04-12T01:30:10.950Z,0.00
2018-04-12T01:31:42.764Z,0.00
2018-04-12T01:33:14.578Z,0.00
2018-04-12T01:34:46.393Z,0.00
2018-04-12T01:36:18.208Z,0.00
2018-04-12T01:37:50.282Z,0.00
2018-04-12T01:39:21.835Z,0.00
2018-04-12T01:40:53.649Z,0.00
2018-04-12T01:42:25.465Z,0.00
2018-04-12T01:43:57.286Z,0.00
2018-04-12T01:45:29.093Z,0.00
2018-04-12T01:47:00.907Z,0.00
2018-04-12T01:48:32.727Z,0.00
2018-04-12T01:50:04.535Z,0.00
2018-04-12T01:51:36.353Z,0.00
2018-04-12T01:53:08.164Z,0.00
2018-04-12T01:54:39.978Z,0.00
2018-04-12T01:56:11.892Z,0.00
2018-04-12T01:57:43.635Z,0.00
2018-04-12T01:59:15.421Z,0.00
2018-04-12T02:00:47.236Z,0.00
2018-04-12T02:02:19.051Z,0.00
2018-04-12T02:03:50.869Z,0.00
2018-04-12T02:05:22.683Z,0.00
2018-04-12T02:06:54.498Z,0.00
2018-04-12T02:08:26.413Z,0.00
2018-04-12T02:09:58.127Z,0.00
2018-04-12T02:11:29.956Z,0.00
2018-04-12T02:13:01.757Z,0.00
2018-04-12T02:14:33.671Z,0.00
2018-04-12T02:16:05.384Z,0.00
2018-04-12T02:17:37.199Z,0.00
2018-04-12T02:19:09.014Z,0.00
2018-04-12T02:20:40.828Z,0.00
2018-04-12T02:22:12.642Z,0.00
2018-04-12T02:23:44.458Z,0.00
2018-04-12T02:25:16.271Z,0.00
2018-04-12T02:26:48.101Z,0.00
2018-04-12T02:28:19.900Z,0.00
2018-04-12T02:29:51.713Z,0.00
2018-04-12T02:31:23.534Z,0.00
2018-04-12T02:32:55.441Z,0.00
2018-04-12T02:34:27.159Z,0.00
2018-04-12T02:35:58.969Z,0.00
2018-04-12T02:37:30.783Z,0.00
2018-04-12T02:39:02.597Z,0.00
2018-04-12T02:40:34.411Z,0.00
2018-04-12T02:42:06.225Z,0.00
2018-04-12T02:43:38.040Z,0.00
2018-04-12T02:45:09.854Z,0.00
2018-04-12T02:46:41.679Z,0.00
2018-04-12T02:48:13.482Z,0.00
2018-04-12T02:49:45.298Z,0.00
2018-04-12T02:51:17.210Z,0.00
2018-04-12T02:52:48.929Z,0.00
2018-04-12T02:54:20.738Z,0.00
2018-04-12T02:55:52.552Z,0.00
2018-04-12T02:57:24.365Z,0.00
2018-04-12T02:58:56.179Z,0.00
2018-04-12T03:00:27.994Z,0.00
2018-04-12T03:01:59.809Z,0.00
2018-04-12T03:03:31.621Z,0.00
2018-04-12T03:05:03.438Z,0.00
2018-04-12T03:06:35.250Z,0.00
2018-04-12T03:08:07.062Z,0.00
2018-04-12T03:09:38.976Z,0.00
2018-04-12T03:11:10.690Z,0.00
2018-04-12T03:12:42.503Z,0.00
2018-04-12T03:14:14.316Z,0.00
2018-04-12T03:15:46.133Z,0.00
2018-04-12T03:17:17.945Z,0.00
2018-04-12T03:18:49.790Z,0.00
2018-04-12T03:20:21.570Z,0.00
2018-04-12T03:21:53.387Z,0.00
2018-04-12T03:23:25.198Z,0.00
2018-04-12T03:24:57.011Z,0.00
2018-04-12T03:26:28.827Z,0.00
2018-04-12T03:28:00.739Z,0.00
2018-04-12T03:29:32.448Z,0.00
2018-04-12T03:31:04.263Z,0.00
2018-04-12T03:32:36.076Z,0.00
2018-04-12T03:34:07.889Z,0.00
2018-04-12T03:35:39.703Z,0.00
2018-04-12T03:37:11.517Z,0.00
2018-04-12T03:38:43.329Z,0.00
2018-04-12T03:40:15.143Z,0.00
2018-04-12T03:41:46.957Z,0.00
2018-04-12T03:43:18.772Z,0.00
2018-04-12T03:44:50.587Z,0.00
2018-04-12T03:46:22.499Z,0.00
2018-04-12T03:47:54.214Z,0.00
2018-04-12T03:49:26.110Z,0.00
2018-04-12T03:50:57.842Z,0.00
2018-04-12T03:52:29.654Z,0.00
2018-04-12T03:54:01.468Z,0.00
2018-04-12T03:55:33.282Z,0.00
2018-04-12T03:57:05.096Z,0.00
2018-04-12T03:58:36.914Z,0.00
2018-04-12T04:00:08.721Z,0.00
2018-04-12T04:01:40.591Z,0.00
2018-04-12T04:03:12.349Z,0.00
2018-04-12T04:04:44.260Z,0.00
2018-04-12T04:06:15.978Z,0.00
2018-04-12T04:07:47.788Z,0.00
2018-04-12T04:09:19.601Z,0.00
2018-04-12T04:10:51.515Z,0.00
2018-04-12T04:12:23.228Z,0.00
2018-04-12T04:13:55.040Z,0.00
2018-04-12T04:15:26.853Z,0.00
2018-04-12T04:16:58.668Z,0.00
2018-04-12T04:18:30.481Z,0.00
2018-04-12T04:20:02.293Z,0.00
2018-04-12T04:21:34.106Z,0.00
2018-04-12T04:23:06.020Z,0.00
2018-04-12T04:24:37.732Z,0.00
2018-04-12T04:26:09.547Z,0.00
2018-04-12T04:27:41.360Z,0.00
2018-04-12T04:29:13.172Z,0.00
2018-04-12T04:30:44.986Z,0.00
2018-04-12T04:32:16.799Z,0.00
2018-04-12T04:33:48.613Z,0.00
2018-04-12T04:35:20.425Z,0.00
2018-04-12T04:36:52.240Z,0.00
2018-04-12T04:38:24.054Z,0.00
2018-04-12T04:39:55.874Z,0.00
2018-04-12T04:41:27.881Z,0.00
2018-04-12T04:42:59.497Z,0.00
2018-04-12T04:44:31.305Z,0.00
2018-04-12T04:46:03.122Z,0.00
2018-04-12T04:47:34.933Z,0.00
2018-04-12T04:49:06.745Z,0.00
2018-04-12T04:50:38.559Z,0.00
2018-04-12T04:52:10.373Z,0.00
2018-04-12T04:53:42.187Z,0.00
2018-04-12T04:55:13.999Z,0.00
2018-04-12T04:56:45.813Z,0.00
2018-04-12T04:58:17.625Z,0.00
2018-04-12T04:59:49.538Z,0.00
2018-04-12T05:01:21.251Z,0.00
2018-04-12T05:02:53.064Z,0.00
2018-04-12T05:04:24.879Z,0.00
2018-04-12T05:05:56.940Z,0.00
2018-04-12T05:07:28.502Z,0.00
2018-04-12T05:09:00.316Z,0.00
2018-04-12T05:10:32.128Z,0.00
2018-04-12T05:12:03.943Z,0.00
2018-04-12T05:13:35.755Z,0.00
2018-04-12T05:15:07.569Z,0.00
2018-04-12T05:16:39.380Z,0.00
2018-04-12T05:18:11.293Z,0.00
2018-04-12T05:19:43.005Z,0.00
2018-04-12T05:21:14.820Z,0.00
2018-04-12T05:22:46.632Z,0.00
2018-04-12T05:24:18.446Z,0.00
2018-04-12T05:25:50.260Z,0.00
2018-04-12T05:27:22.071Z,0.00
2018-04-12T05:28:53.884Z,0.00
2018-04-12T05:30:25.697Z,0.00
2018-04-12T05:31:57.510Z,0.00
2018-04-12T05:33:29.323Z,0.00
2018-04-12T05:35:01.139Z,0.00
2018-04-12T05:36:33.050Z,0.00
2018-04-12T05:38:04.762Z,0.00
2018-04-12T05:39:36.575Z,0.00
2018-04-12T05:41:08.394Z,0.00
2018-04-12T05:42:40.303Z,0.00
2018-04-12T05:44:12.016Z,0.00
2018-04-12T05:45:43.827Z,0.00
2018-04-12T05:47:15.640Z,0.00
2018-04-12T05:48:47.452Z,0.00
2018-04-12T05:50:19.266Z,0.00
2018-04-12T05:51:51.079Z,0.00
2018-04-12T05:53:22.891Z,0.00
2018-04-12T05:54:54.804Z,0.00
2018-04-12T05:56:26.552Z,0.00
2018-04-12T05:57:58.329Z,0.00
2018-04-12T05:59:30.142Z,0.00
2018-04-12T06:01:01.956Z,0.00
2018-04-12T06:02:33.775Z,0.00
2018-04-12T06:04:05.888Z,0.00
2018-04-12T06:05:37.393Z,0.00
2018-04-12T06:07:09.469Z,0.00
2018-04-12T06:08:41.020Z,0.00
2018-04-12T06:10:12.833Z,0.00
2018-04-12T06:11:44.646Z,0.00
2018-04-12T06:13:16.708Z,0.00
2018-04-12T06:14:48.270Z,0.00
2018-04-12T06:16:20.084Z,0.00
2018-04-12T06:17:51.896Z,0.00
2018-04-12T06:19:23.710Z,0.00
2018-04-12T06:20:55.523Z,0.00
2018-04-12T06:22:27.336Z,0.00
2018-04-12T06:23:59.151Z,0.00
2018-04-12T06:25:30.961Z,0.00
2018-04-12T06:27:02.775Z,0.00
2018-04-12T06:28:34.586Z,0.00
2018-04-12T06:30:06.399Z,0.00
2018-04-12T06:31:38.362Z,0.00
2018-04-12T06:33:10.024Z,0.00
2018-04-12T06:34:41.837Z,0.00
2018-04-12T06:36:13.650Z,0.00
2018-04-12T06:37:45.464Z,0.00
2018-04-12T06:39:17.276Z,0.00
2018-04-12T06:40:49.089Z,0.00
2018-04-12T06:42:20.904Z,0.00
2018-04-12T06:43:52.714Z,0.00
2018-04-12T06:45:24.530Z,0.00
2018-04-12T06:46:56.339Z,0.00
2018-04-12T06:48:28.152Z,0.00
2018-04-12T06:50:00.064Z,0.00
2018-04-12T06:51:31.775Z,0.00
2018-04-12T06:53:03.588Z,0.00
2018-04-12T06:54:35.403Z,0.00
2018-04-12T06:56:07.215Z,0.00
2018-04-12T06:57:39.057Z,0.00
2018-04-12T06:59:10.840Z,0.00
2018-04-12T07:00:42.652Z,0.00
2018-04-12T07:02:14.478Z,0.00
2018-04-12T07:05:18.090Z,0.00
2018-04-12T07:06:49.902Z,0.00
2018-04-12T07:08:22.065Z,0.00
2018-04-12T07:09:53.527Z,0.00
2018-04-12T07:11:25.355Z,0.00
2018-04-12T07:12:57.155Z,0.00
2018-04-12T07:14:28.980Z,0.00
2018-04-12T07:16:00.780Z,0.00
2018-04-12T07:17:32.591Z,0.00
2018-04-12T07:19:04.402Z,0.00
2018-04-12T07:20:36.215Z,0.00
2018-04-12T07:22:08.027Z,0.00
2018-04-12T07:23:39.840Z,0.00
2018-04-12T07:25:11.653Z,0.00
2018-04-12T07:26:43.866Z,0.00
2018-04-12T07:28:15.289Z,0.00
2018-04-12T07:29:47.095Z,0.00
2018-04-12T07:31:18.908Z,0.00
2018-04-12T07:32:50.720Z,0.00
2018-04-12T07:34:22.533Z,0.00
2018-04-12T07:35:54.351Z,0.00
2018-04-12T07:37:26.157Z,0.00
2018-04-12T07:38:58.221Z,0.00
2018-04-12T07:40:29.788Z,0.00
2018-04-12T07:42:01.599Z,0.00
2018-04-12T07:43:33.413Z,0.00
2018-04-12T07:45:05.320Z,0.00
2018-04-12T07:46:37.033Z,0.00
2018-04-12T07:48:08.846Z,0.00
2018-04-12T07:49:40.659Z,0.00
2018-04-12T07:51:12.486Z,0.00
2018-04-12T07:52:44.283Z,0.00
2018-04-12T07:54:16.095Z,0.00
2018-04-12T07:55:47.907Z,0.00
2018-04-12T07:57:19.720Z,0.00
2018-04-12T07:58:51.536Z,0.00
2018-04-12T08:00:23.340Z,0.00
2018-04-12T08:01:55.153Z,0.00
2018-04-12T08:03:27.065Z,0.00
2018-04-12T08:04:59.083Z,0.00
2018-04-12T08:06:30.594Z,0.00
2018-04-12T08:08:02.440Z,0.00
2018-04-12T08:09:34.468Z,0.00
2018-04-12T08:11:06.031Z,0.00
2018-04-12T08:12:37.919Z,0.00
2018-04-12T08:14:09.725Z,0.00
2018-04-12T08:15:41.637Z,0.00
2018-04-12T08:17:13.354Z,0.00
2018-04-12T08:18:45.161Z,0.00
2018-04-12T08:20:16.974Z,0.00
2018-04-12T08:21:48.816Z,0.00
2018-04-12T08:23:20.528Z,0.00
2018-04-12T08:24:52.341Z,0.00
2018-04-12T08:26:24.147Z,0.00
2018-04-12T08:27:55.959Z,0.00
2018-04-12T08:29:27.775Z,0.00
2018-04-12T08:30:59.585Z,0.00
2018-04-12T08:32:31.397Z,0.00
2018-04-12T08:34:03.211Z,0.00
2018-04-12T08:35:35.024Z,0.00
2018-04-12T08:37:06.833Z,0.00
2018-04-12T08:38:38.647Z,0.00
2018-04-12T08:40:10.814Z,0.00
2018-04-12T08:41:42.269Z,0.00
2018-04-12T08:43:14.087Z,0.00
2018-04-12T08:44:45.892Z,0.00
2018-04-12T08:46:17.805Z,0.00
2018-04-12T08:47:49.517Z,0.00
2018-04-12T08:49:21.348Z,0.00
2018-04-12T08:50:53.148Z,0.00
2018-04-12T08:52:24.953Z,0.00
2018-04-12T08:53:56.773Z,0.00
2018-04-12T08:55:28.583Z,0.00
2018-04-12T08:57:00.400Z,4.00
2018-04-12T08:58:32.312Z,4.00
2018-04-12T09:00:04.020Z,8.00
2018-04-12T09:01:35.832Z,8.00
2018-04-12T09:03:07.648Z,12.00
2018-04-12T09:04:39.457Z,20.00
2018-04-12T09:06:11.268Z,32.00
2018-04-12T09:07:43.080Z,48.00
2018-04-12T09:09:14.892Z,68.00
2018-04-12T09:10:46.955Z,92.00
2018-04-12T09:12:18.517Z,128.00
2018-04-12T09:13:50.329Z,168.00
2018-04-12T09:15:22.135Z,216.00
2018-04-12T09:16:54.147Z,268.00
2018-04-12T09:18:25.771Z,332.00
2018-04-12T09:19:57.576Z,400.00
2018-04-12T09:21:29.387Z,476.00
2018-04-12T09:23:01.200Z,564.00
2018-04-12T09:24:33.014Z,656.00
2018-04-12T09:26:04.824Z,764.00
2018-04-12T09:27:36.638Z,880.00
2018-04-12T09:29:08.448Z,1004.00
2018-04-12T09:30:40.262Z,1148.00
2018-04-12T09:32:12.074Z,1340.00
2018-04-12T09:33:43.885Z,1564.00
2018-04-12T09:35:15.797Z,1844.00
2018-04-12T09:36:47.713Z,2092.00
2018-04-12T09:38:19.321Z,2276.00
2018-04-12T09:39:51.138Z,2484.00
2018-04-12T09:41:23.040Z,2796.00
2018-04-12T09:42:54.759Z,2896.00
2018-04-12T09:44:26.570Z,3120.00
2018-04-12T09:45:58.379Z,3288.00
2018-04-12T09:47:30.295Z,3676.00
2018-04-12T09:49:02.019Z,3964.00
2018-04-12T09:50:33.820Z,4248.00
2018-04-12T09:52:06.081Z,4528.00
2018-04-12T09:53:37.839Z,5040.00
2018-04-12T09:55:09.253Z,5152.00
2018-04-12T09:56:41.086Z,5308.00
2018-04-12T09:58:12.880Z,5728.00
2018-04-12T09:59:44.719Z,5760.00
2018-04-12T10:01:16.508Z,5748.00
2018-04-12T10:02:48.372Z,6136.00
2018-04-12T10:04:20.652Z,6220.00
2018-04-12T10:05:51.945Z,6884.00
2018-04-12T10:07:23.760Z,7448.00
2018-04-12T10:10:27.388Z,8672.00
2018-04-12T10:11:59.606Z,8736.00
2018-04-12T10:13:31.016Z,8380.00
2018-04-12T10:15:02.834Z,9396.00
2018-04-12T10:16:34.653Z,9776.00
2018-04-12T10:18:06.560Z,9640.00
2018-04-12T10:19:38.275Z,9992.00
2018-04-12T10:21:10.113Z,9604.00
2018-04-12T10:22:41.909Z,10528.00
2018-04-12T10:24:13.721Z,10384.00
2018-04-12T10:25:45.756Z,10772.00
2018-04-12T10:27:17.658Z,11272.00
2018-04-12T10:28:49.174Z,11816.00
2018-04-12T10:30:21.838Z,12584.00
2018-04-12T10:31:52.828Z,12404.00
2018-04-12T10:33:24.631Z,12708.00
2018-04-12T10:34:56.440Z,12220.00
2018-04-12T10:36:28.253Z,12248.00
2018-04-12T10:38:00.070Z,12804.00
2018-04-12T10:39:31.889Z,11252.00
2018-04-12T10:41:04.009Z,13528.00
2018-04-12T10:42:35.724Z,14776.00
2018-04-12T10:44:07.645Z,14368.00
2018-04-12T10:45:39.196Z,14608.00
2018-04-12T10:47:10.975Z,15724.00
2018-04-12T10:48:43.390Z,17040.00
2018-04-12T10:50:14.615Z,18144.00
2018-04-12T10:51:46.477Z,19968.00
2018-04-12T10:53:18.247Z,22208.00
2018-04-12T10:54:50.065Z,26368.00
2018-04-12T10:56:21.883Z,29600.00
2018-04-12T10:57:53.707Z,22272.00
2018-04-12T10:59:25.835Z,18016.00
2018-04-12T11:00:57.643Z,16952.00
2018-04-12T11:02:29.157Z,16324.00
2018-04-12T11:04:01.028Z,16204.00
2018-04-12T11:05:32.899Z,16092.00
2018-04-12T11:07:04.719Z,16252.00
2018-04-12T11:08:36.437Z,16652.00
2018-04-12T11:10:08.369Z,17560.00
2018-04-12T11:11:40.085Z,17784.00
2018-04-12T11:13:11.899Z,17732.00
2018-04-12T11:14:43.717Z,18356.00
2018-04-12T11:16:15.739Z,19008.00
2018-04-12T11:17:47.662Z,19200.00
2018-04-12T11:19:19.583Z,19936.00
2018-04-12T11:20:50.999Z,21280.00
2018-04-12T11:22:22.823Z,21984.00
2018-04-12T11:23:54.645Z,23072.00
2018-04-12T11:25:26.580Z,24928.00
2018-04-12T11:26:58.698Z,28320.00
2018-04-12T11:28:30.104Z,30080.00
2018-04-12T11:30:02.209Z,36608.00
2018-04-12T11:31:33.753Z,33056.00
2018-04-12T11:34:37.401Z,38432.00
2018-04-12T11:36:09.212Z,33312.00
2018-04-12T11:37:41.035Z,38816.00
2018-04-12T11:39:12.853Z,39808.00
2018-04-12T11:40:44.675Z,42784.00
2018-04-12T11:42:16.518Z,43072.00
2018-04-12T11:43:48.417Z,45632.00
2018-04-12T11:45:20.170Z,45280.00
2018-04-12T11:46:51.983Z,46464.00
2018-04-12T11:48:23.783Z,48096.00
2018-04-12T11:51:27.428Z,46080.00
2018-04-12T11:52:59.273Z,41888.00
2018-04-12T11:54:31.073Z,44000.00
2018-04-12T11:56:02.903Z,49408.00
2018-04-12T11:57:34.720Z,48896.00
2018-04-12T11:59:06.551Z,48032.00
2018-04-12T12:00:38.366Z,45632.00
2018-04-12T12:02:10.190Z,46304.00
2018-04-12T12:03:42.114Z,45312.00
2018-04-12T12:05:13.870Z,44640.00
2018-04-12T12:06:45.663Z,44384.00
2018-04-12T12:08:17.485Z,49632.00
2018-04-12T12:09:49.609Z,50304.00
2018-04-12T12:11:21.138Z,51424.00
2018-04-12T12:12:52.951Z,50304.00
2018-04-12T12:14:24.781Z,52512.00
2018-04-12T12:15:56.597Z,51840.00
2018-04-12T12:17:28.421Z,50528.00
2018-04-12T12:19:00.553Z,53920.00
2018-04-12T12:20:32.083Z,54784.00
2018-04-12T12:22:03.995Z,54240.00
2018-04-12T12:23:35.726Z,59392.00
2018-04-12T12:25:07.541Z,58944.00
2018-04-12T12:26:39.620Z,60416.00
2018-04-12T12:28:11.188Z,62784.00
2018-04-12T12:29:43.012Z,64064.00
2018-04-12T12:31:14.834Z,64928.00
2018-04-12T12:32:46.694Z,66816.00
2018-04-12T12:34:18.487Z,66144.00
2018-04-12T12:35:50.307Z,66400.00
2018-04-12T12:37:22.164Z,71072.00
2018-04-12T12:38:53.966Z,71424.00
2018-04-12T12:41:57.823Z,72640.00
2018-04-12T12:43:29.428Z,70880.00
2018-04-12T12:45:01.796Z,73024.00
2018-04-12T12:46:33.081Z,73024.00
2018-04-12T12:48:04.901Z,81856.00
2018-04-12T12:49:36.724Z,49952.00
2018-04-12T12:51:08.622Z,65888.00
2018-04-12T12:52:40.575Z,74048.00
2018-04-12T12:54:12.334Z,71200.00
2018-04-12T12:55:44.133Z,71904.00
2018-04-12T12:57:15.847Z,71392.00
2018-04-12T12:58:47.709Z,74752.00
2018-04-12T13:00:19.872Z,74208.00
2018-04-12T13:01:51.624Z,72928.00
2018-04-12T13:03:23.178Z,78400.00
2018-04-12T13:04:55.190Z,77088.00
2018-04-12T13:07:58.621Z,71616.00
2018-04-12T13:09:30.748Z,72448.00
2018-04-12T13:11:02.308Z,74016.00
2018-04-12T13:12:34.109Z,71456.00
2018-04-12T13:14:05.970Z,71776.00
2018-04-12T13:15:37.783Z,71808.00
2018-04-12T13:17:09.610Z,71392.00
2018-04-12T13:18:41.393Z,70144.00
2018-04-12T13:20:13.622Z,72416.00
2018-04-12T13:21:45.404Z,72256.00
2018-04-12T13:23:16.867Z,75648.00
2018-04-12T13:24:48.861Z,83136.00
2018-04-12T13:26:20.597Z,92672.00
2018-04-12T13:27:52.342Z,109536.00
2018-04-12T13:29:24.168Z,83904.00
2018-04-12T13:30:55.992Z,51008.00
2018-04-12T13:32:27.818Z,43360.00
2018-04-12T13:37:03.341Z,26976.00
2018-04-12T13:38:35.403Z,25760.00
2018-04-12T13:40:07.147Z,24960.00
2018-04-12T13:43:11.118Z,24256.00
2018-04-12T13:44:42.782Z,24128.00
2018-04-12T13:46:15.029Z,24320.00
2018-04-12T13:47:46.079Z,23808.00
2018-04-12T13:49:17.901Z,24864.00
2018-04-12T13:50:49.726Z,25760.00
2018-04-12T13:55:25.247Z,25152.00
2018-04-12T13:56:57.436Z,24960.00
2018-04-12T13:58:28.889Z,24992.00
2018-04-12T14:00:00.718Z,24992.00
2018-04-12T14:01:32.714Z,25152.00
2018-04-12T14:03:04.641Z,25632.00
2018-04-12T14:04:36.358Z,25824.00
2018-04-12T14:06:08.248Z,26080.00
2018-04-12T14:07:39.822Z,26112.00
2018-04-12T14:09:11.646Z,26656.00
2018-04-12T14:12:15.599Z,27264.00
2018-04-12T14:13:48.045Z,27392.00
2018-04-12T14:15:19.049Z,27680.00
2018-04-12T14:16:50.778Z,28448.00
2018-04-12T14:18:22.603Z,28384.00
2018-04-12T14:19:54.733Z,28448.00
2018-04-12T14:21:26.256Z,28704.00
2018-04-12T14:22:58.133Z,29056.00
2018-04-12T14:24:29.909Z,29248.00
2018-04-12T14:26:01.736Z,29760.00
2018-04-12T14:29:06.112Z,30720.00
2018-04-12T14:30:37.243Z,31168.00
2018-04-12T14:32:09.097Z,31360.00
2018-04-12T14:33:40.874Z,31904.00
2018-04-12T14:35:12.803Z,32224.00
2018-04-12T14:36:44.731Z,32896.00
2018-04-12T14:38:16.359Z,33632.00
2018-04-12T14:39:48.389Z,33728.00
2018-04-12T14:41:20.016Z,34144.00
2018-04-12T14:42:51.843Z,35456.00
2018-04-12T14:44:23.673Z,36832.00
2018-04-12T14:45:55.507Z,38048.00
2018-04-12T14:47:27.889Z,38720.00
2018-04-12T14:48:59.464Z,38848.00
2018-04-12T14:50:30.989Z,39552.00
2018-04-12T14:52:02.817Z,39392.00
2018-04-12T14:53:34.746Z,41600.00
2018-04-12T14:55:06.480Z,43616.00
2018-04-12T14:56:38.303Z,45312.00
2018-04-12T14:58:10.133Z,46720.00
2018-04-12T14:59:41.963Z,48256.00
2018-04-12T15:01:13.792Z,49152.00
2018-04-12T15:05:49.584Z,55136.00
2018-04-12T15:07:21.109Z,57504.00
2018-04-12T15:08:52.941Z,59616.00
2018-04-12T15:10:24.768Z,61664.00
2018-04-12T15:11:57.006Z,62432.00
2018-04-12T15:13:28.429Z,65536.00
2018-04-12T15:16:32.088Z,61952.00
2018-04-12T15:18:03.920Z,67808.00
2018-04-12T15:19:35.747Z,72512.00
2018-04-12T15:24:11.235Z,73792.00
2018-04-12T15:28:46.721Z,62976.00
2018-04-12T15:30:18.956Z,64672.00
2018-04-12T15:33:22.207Z,84608.00
2018-04-12T15:34:54.035Z,59872.00
2018-04-12T15:36:26.116Z,83648.00
2018-04-12T15:39:29.900Z,61472.00
2018-04-12T15:41:01.371Z,25344.00
2018-04-12T15:42:33.177Z,27552.00
2018-04-12T15:44:05.019Z,94816.00
2018-04-12T15:45:36.835Z,57344.00
2018-04-12T15:47:08.662Z,60928.00
2018-04-12T15:48:40.740Z,63584.00
2018-04-12T15:50:12.341Z,86112.00
2018-04-12T15:53:15.972Z,82816.00
2018-04-12T15:54:48.108Z,78464.00
2018-04-12T15:56:19.731Z,94112.00
2018-04-12T15:59:23.297Z,90816.00
2018-04-12T16:00:55.113Z,69408.00
2018-04-12T16:02:26.942Z,70528.00
2018-04-12T16:03:59.163Z,56992.00
2018-04-12T16:05:31.661Z,48064.00
2018-04-12T16:07:02.698Z,42784.00
2018-04-12T16:08:34.255Z,71136.00
2018-04-12T16:10:07.076Z,78944.00
2018-04-12T16:11:37.933Z,56352.00
2018-04-12T16:13:10.078Z,61472.00
2018-04-12T16:14:41.796Z,63488.00
2018-04-12T16:16:13.971Z,63104.00
2018-04-12T16:17:45.221Z,58112.00
2018-04-12T16:19:17.202Z,55328.00
2018-04-12T16:20:49.127Z,67616.00
2018-04-12T16:22:20.733Z,70848.00
2018-04-12T16:23:52.765Z,51104.00
2018-04-12T16:25:24.513Z,46752.00
2018-04-12T16:26:56.667Z,37408.00
2018-04-12T16:28:28.389Z,43104.00
2018-04-12T16:29:59.842Z,48352.00
2018-04-12T16:31:31.767Z,49280.00
2018-04-12T16:34:35.445Z,52576.00
2018-04-12T16:36:07.148Z,43872.00
2018-04-12T16:37:39.186Z,28832.00
2018-04-12T16:39:11.356Z,32832.00
2018-04-12T16:40:42.866Z,22624.00
2018-04-12T16:42:14.451Z,22016.00
2018-04-12T16:46:50.029Z,21152.00
2018-04-12T16:48:21.971Z,22496.00
2018-04-12T16:52:57.300Z,24160.00
2018-04-12T16:54:29.360Z,24832.00
2018-04-12T16:56:00.929Z,24896.00
2018-04-12T16:57:32.764Z,24128.00
2018-04-12T16:59:04.568Z,23072.00
2018-04-12T17:00:36.684Z,22144.00
2018-04-12T17:03:38.622Z,20800.00
2018-04-12T17:05:08.097Z,20256.00
2018-04-12T17:06:39.619Z,20064.00
2018-04-12T17:08:11.462Z,19872.00
2018-04-12T17:09:43.293Z,19680.00
2018-04-12T17:11:15.088Z,19776.00
2018-04-12T17:12:47.215Z,20288.00
2018-04-12T17:14:19.258Z,20736.00
2018-04-12T17:17:22.378Z,20416.00
2018-04-12T17:18:54.201Z,20544.00
2018-04-12T17:21:58.015Z,21920.00
2018-04-12T17:23:29.771Z,22944.00
2018-04-12T17:25:01.613Z,23552.00
2018-04-12T17:26:33.327Z,24416.00
2018-04-12T17:28:05.557Z,24672.00
2018-04-12T17:29:38.025Z,24544.00
2018-04-12T17:31:08.781Z,23392.00
2018-04-12T17:32:41.120Z,21440.00
2018-04-12T17:34:12.728Z,19680.00
2018-04-12T17:35:44.587Z,17888.00
2018-04-12T17:37:16.101Z,15772.00
2018-04-12T17:40:19.722Z,15568.00
2018-04-12T17:41:52.006Z,15972.00
2018-04-12T17:43:23.362Z,16824.00
2018-04-12T17:44:55.269Z,17728.00
2018-04-12T17:46:27.177Z,17824.00
2018-04-12T17:47:58.847Z,16204.00
2018-04-12T17:49:30.654Z,13896.00
2018-04-12T17:51:02.550Z,12604.00
2018-04-12T17:52:34.289Z,13248.00
2018-04-12T17:54:06.111Z,15656.00
2018-04-12T17:55:37.932Z,17004.00
2018-04-12T17:57:09.768Z,15436.00
2018-04-12T17:58:41.577Z,14096.00
2018-04-12T18:00:13.495Z,14284.00
2018-04-12T18:01:45.216Z,15084.00
2018-04-12T18:03:17.043Z,17824.00
2018-04-12T18:04:48.859Z,19872.00
2018-04-12T18:06:20.680Z,20640.00
2018-04-12T18:07:52.504Z,19744.00
2018-04-12T18:09:24.327Z,19296.00
2018-04-12T18:10:56.160Z,26976.00
2018-04-12T18:12:27.967Z,33824.00
2018-04-12T18:17:03.589Z,35360.00
2018-04-12T18:18:35.416Z,30432.00
2018-04-12T18:20:07.354Z,36224.00
2018-04-12T18:21:38.897Z,41920.00
2018-04-12T18:23:11.015Z,26496.00
2018-04-12T18:24:42.887Z,21152.00
2018-04-12T18:26:14.361Z,20128.00
2018-04-12T18:27:46.405Z,17536.00
2018-04-12T18:29:18.038Z,16508.00
2018-04-12T18:30:49.883Z,17204.00
2018-04-12T18:32:21.913Z,19584.00
2018-04-12T18:33:54.097Z,22656.00
2018-04-12T18:35:25.296Z,25504.00
2018-04-12T18:36:57.218Z,25696.00
2018-04-12T18:38:29.027Z,20864.00
2018-04-12T18:41:32.585Z,29216.00
2018-04-12T18:44:36.448Z,18464.00
2018-04-12T18:46:08.052Z,14236.00
2018-04-12T18:47:39.881Z,13928.00
2018-04-12T18:49:11.702Z,10812.00
2018-04-12T18:50:43.724Z,7764.00
2018-04-12T18:52:15.650Z,6888.00
2018-04-12T18:55:18.981Z,6372.00
2018-04-12T18:58:23.186Z,8900.00
2018-04-12T18:59:54.654Z,11268.00
2018-04-12T19:01:26.573Z,13712.00
2018-04-12T19:02:58.102Z,16352.00
2018-04-12T19:04:29.914Z,10696.00
2018-04-12T19:07:33.553Z,10676.00
2018-04-12T19:10:37.197Z,11172.00
2018-04-12T19:12:09.538Z,12248.00
2018-04-12T19:13:40.842Z,13220.00
2018-04-12T19:15:12.661Z,15844.00
2018-04-12T19:16:44.734Z,15588.00
2018-04-12T19:19:48.124Z,13940.00
2018-04-12T19:21:20.528Z,12828.00
2018-04-12T19:25:55.438Z,9288.00
2018-04-12T19:27:27.562Z,9364.00
2018-04-12T19:28:59.570Z,9000.00
2018-04-12T19:30:30.872Z,8004.00
2018-04-12T19:32:02.998Z,6968.00
2018-04-12T19:33:34.819Z,6472.00
2018-04-12T19:35:06.334Z,6124.00
2018-04-12T19:36:38.197Z,5564.00
2018-04-12T19:38:10.004Z,4964.00
2018-04-12T19:39:41.797Z,4380.00
2018-04-12T19:41:13.619Z,3928.00
2018-04-12T19:42:45.447Z,3800.00
2018-04-12T19:44:17.257Z,3852.00
2018-04-12T19:45:49.078Z,3900.00
2018-04-12T19:47:20.898Z,3864.00
2018-04-12T19:48:52.717Z,3800.00
2018-04-12T19:50:24.689Z,3712.00
2018-04-12T19:51:56.358Z,3548.00
2018-04-12T19:53:28.297Z,3432.00
2018-04-12T19:54:59.999Z,3280.00
2018-04-12T19:56:31.818Z,3180.00
2018-04-12T19:58:03.688Z,3092.00
2018-04-12T19:59:35.457Z,3024.00
2018-04-12T20:01:07.478Z,3012.00
2018-04-12T20:02:39.256Z,3008.00
2018-04-12T20:04:11.223Z,2892.00
2018-04-12T20:05:42.735Z,2832.00
2018-04-12T20:07:14.556Z,2844.00
2018-04-12T20:08:46.568Z,2740.00
2018-04-12T20:10:18.194Z,2460.00
2018-04-12T20:11:50.013Z,2164.00
2018-04-12T20:13:21.833Z,1972.00
2018-04-12T20:14:53.651Z,1860.00